Sunday, January 20, 2019, 2:28 AM EST
Back to Local

KTEB, Teterboro Airport

Location: South Hackensack, NJ, United States Lat: 40.867
Local Time: 2:28 AM EST ( 7:28 GMT) Lon: -74.05
Time Zone: US/Eastern Elev: 9 ft

Show me the last for .
Show Decoded

2019-01-20 01:51 METAR KTEB 200651Z 06011KT 360V080 5SM +RA BR OVC011 02/01 A2975 RMK AO2 SLP073
                 P0020 T00170006 $ =
2019-01-20 00:51 METAR KTEB 200551Z 08011G23KT 4SM +RA BR OVC008 01/01 A2976 RMK AO2 CIG 006V012
                 SLP078 P0025 60058 T00110006 10028 20011 58041 $ =
2019-01-19 23:58 METAR KTEB 200458Z 08012G19KT 4SM RA BR OVC010 02/01 A2983 =
2019-01-19 23:51 METAR KTEB 200451Z 09012G25KT 4SM +RA BR OVC009 02/01 A2984 RMK AO2 PK WND
                 09026/0414 PLE13 CIG 008V013 SLP104 P0014 T00170006 400281028 $ =
2019-01-19 23:19 METAR KTEB 200419Z 08011G26KT 3SM -RA BR OVC008 02/00 A2986 RMK AO2 PK WND
                 09026/0414 PLE13 P0004 T00170000 $ =
2019-01-19 22:51 METAR KTEB 200351Z 09011G24KT 3SM -RAPL BR OVC008 01/00 A2988 RMK AO2
                 RAB22SNE14PLB14E22B40 CIG 006V011 SLP119 P0009 T00110000 =
2019-01-19 22:46 METAR KTEB 200346Z 08012G24KT 3SM -RAPL BR OVC008 01/00 A2988 RMK AO2
                 RAB22SNE14PLB14E22B40 CIG 006V011 P0008 =
2019-01-19 22:22 METAR KTEB 200322Z 09012KT 4SM -RA BR OVC006 01/01 A2991 RMK AO2
                 RAB22SNE14PLB14E22 CIG 005V010 P0005 T00110006 =
2019-01-19 22:17 METAR KTEB 200317Z 08011KT 2SM -PL BR OVC006 01/00 A2990 RMK AO2 SNE14PLB14 CIG
                 005V010 P0004 T00110000 =
2019-01-19 21:51 METAR KTEB 200251Z 08012G16KT 1SM R06/P6000FT -SN BR OVC005 01/00 A2993 RMK AO2
                 SLP135 P0006 60010 T00110000 58045 =
2019-01-19 20:58 METAR KTEB 200158Z 07011KT 2 1/2SM -SN BR FEW007 OVC013 01/00 A2998 RMK AO2
                 PRESFR P0000 T00110000 =
2019-01-19 20:51 METAR KTEB 200151Z 07011KT 1 1/2SM -SN BR OVC012 01/00 A2999 RMK AO2 SLP155
                 P0004 T00110000 =
2019-01-19 20:29 METAR KTEB 200129Z 08011KT 2SM -SN BR OVC012 01/00 A3001 RMK AO2 P0002 T00110000
                 =
2019-01-19 20:11 METAR KTEB 200111Z 10008G15KT 1 3/4SM -SN BR OVC012 02/M01 A3003 RMK AO2 P0001
                 T00171006 =
2019-01-19 19:51 METAR KTEB 200051Z 08012KT 5SM -SN BR OVC020 02/M02 A3001 RMK AO2 SNB47 SLP163
                 P0000 T00221017 =
2019-01-19 18:51 METAR KTEB 192351Z 08012KT 8SM BKN027 BKN032 OVC040 03/M03 A3006 RMK AO2 PRESFR
                 SLP180 60000 T00281028 10028 20022 56028 =
2019-01-19 17:51 METAR KTEB 192251Z 08011G15KT 10SM OVC027 03/M03 A3010 RMK AO2 SNB33E48 SLP191
                 P0000 T00281033 =
2019-01-19 16:51 METAR KTEB 192151Z 10012KT 10SM OVC028 03/M04 A3011 RMK AO2 SLP194 T00281039 =
2019-01-19 15:51 METAR KTEB 192051Z 08010KT 10SM OVC031 02/M04 A3015 RMK AO2 SLP208 T00221044
                 56015 =
2019-01-19 14:51 METAR KTEB 191951Z 08011KT 10SM OVC035 02/M05 A3016 RMK AO2 SLP212 T00221050 =
2019-01-19 13:51 METAR KTEB 191851Z 09009KT 10SM OVC035 02/M06 A3017 RMK AO2 SLP216 T00221056 =
2019-01-19 12:51 METAR KTEB 191751Z 07012KT 10SM BKN035 OVC050 02/M05 A3019 RMK AO2 SLP223
                 T00221050 10028 21028 58025 =
2019-01-19 11:51 METAR KTEB 191651Z 11011KT 10SM FEW032 FEW039 OVC050 02/M04 A3024 RMK AO2 SLP239
                 T00221044 =
2019-01-19 10:51 METAR KTEB 191551Z 06010KT 10SM OVC050 02/M05 A3026 RMK AO2 SLP246 T00221050 =
2019-01-19 09:51 METAR KTEB 191451Z VRB06KT 10SM CLR 02/M05 A3027 RMK AO2 SLP248 T00221050 51019
                 =
2019-01-19 08:51 METAR KTEB 191351Z 33007KT 290V360 10SM CLR 01/M05 A3026 RMK AO2 SLP248
                 T00061050 =
2019-01-19 07:51 METAR KTEB 191251Z VRB06KT 10SM CLR M02/M06 A3023 RMK AO2 SLP237 T10221056 =
2019-01-19 06:51 METAR KTEB 191151Z 08008KT 10SM CLR M02/M06 A3021 RMK AO2 SLP229 T10221061 10006
                 21022 50002 =
2019-01-19 05:51 METAR KTEB 191051Z VRB04KT 10SM CLR M02/M06 A3022 RMK AO2 SLP234 T10171061 =
2019-01-19 04:51 METAR KTEB 190951Z 32003KT 10SM CLR M02/M06 A3020 RMK AO2 SLP227 T10221061 =
2019-01-19 03:51 METAR KTEB 190851Z VRB05KT 10SM CLR M01/M06 A3020 RMK AO2 SLP227 T10111061 50008
                 =
2019-01-19 02:51 METAR KTEB 190751Z VRB05KT 10SM CLR M01/M06 A3022 RMK AO2 SLP232 T10061056 =

Support USWX by starting your Amazon purchase here.